Time;durP1;ratioP1;P1;durP2;ratioP2;P2;SDS_P1;SDS_P2;PMS_P1;PMS_P2;Temp;Humidity;BMP_temperature;BMP_pressure;BME280_temperature;BME280_humidity;BME280_pressure;Samples;Min_cycle;Max_cycle;Signal;HPM_P1;HPM_P2
2022/02/04 00:24:06;;;;;;;24.80;17.00;;;;;;;7.15;100.00;100975.72;5000637;28;20517;-76
2022/02/04 00:26:37;;;;;;;25.37;15.80;;;;;;;7.05;100.00;100983.09;4995486;28;20474;-76
2022/02/04 00:31:39;;;;;;;24.77;15.90;;;;;;;7.32;100.00;100976.47;4996643;28;20449;-77
2022/02/04 00:34:09;;;;;;;24.43;15.67;;;;;;;7.03;100.00;100929.94;4997590;28;20464;-75
2022/02/04 00:36:43;;;;;;;18.70;15.10;;;;;;;7.24;100.00;100966.69;4993788;28;20495;-74
2022/02/04 00:39:13;;;;;;;23.70;15.47;;;;;;;6.82;100.00;100921.66;4996491;28;20651;-76
2022/02/04 00:41:41;;;;;;;21.87;17.23;;;;;;;7.07;100.00;100968.59;4988743;28;20965;-74
2022/02/04 00:44:15;;;;;;;21.40;16.27;;;;;;;7.02;100.00;100934.41;4997484;28;20998;-74
2022/02/04 00:52:00;;;;;;;22.47;16.93;;;;;;;7.10;100.00;100952.22;5000789;28;20482;-76
2022/02/04 00:57:39;;;;;;;22.43;17.80;;;;;;;7.10;100.00;100948.75;5002591;28;20849;-75
2022/02/04 01:27:09;;;;;;;31.43;21.87;;;;;;;6.64;100.00;100913.91;5000414;28;20446;-74
2022/02/04 01:29:45;;;;;;;29.70;20.93;;;;;;;6.35;100.00;100856.69;5002140;28;20478;-74
2022/02/04 01:32:11;;;;;;;30.97;21.40;;;;;;;6.78;100.00;100922.00;5002985;28;20431;-74
2022/02/04 01:34:36;;;;;;;31.20;21.30;;;;;;;6.64;100.00;100889.91;4997773;28;20565;-75
2022/02/04 01:37:02;;;;;;;30.67;19.90;;;;;;;6.80;100.00;100921.84;4997728;28;20232;-75
2022/02/04 01:39:27;;;;;;;28.80;21.23;;;;;;;6.45;100.00;100873.31;4978346;28;20189;-74
2022/02/04 01:41:52;;;;;;;29.90;21.57;;;;;;;6.84;100.00;100909.00;4995635;28;20185;-74
2022/02/04 01:44:26;;;;;;;23.67;19.70;;;;;;;6.78;100.00;100947.84;4995649;28;20211;-75
2022/02/04 01:46:52;;;;;;;25.17;19.47;;;;;;;6.70;100.00;100938.03;4997722;28;20180;-74
2022/02/04 01:49:17;;;;;;;28.80;19.80;;;;;;;6.75;100.00;100932.19;4993563;28;20440;-74
2022/02/04 01:51:43;;;;;;;29.13;20.40;;;;;;;6.17;100.00;100850.75;4993229;28;20590;-75
2022/02/04 01:54:08;;;;;;;25.47;18.60;;;;;;;6.23;100.00;100858.06;5002612;28;20205;-75
2022/02/04 01:56:34;;;;;;;36.60;20.57;;;;;;;6.62;100.00;100897.25;5000090;28;21169;-73
2022/02/04 01:59:00;;;;;;;28.03;20.03;;;;;;;6.76;100.00;100916.00;4990451;28;20185;-74
2022/02/04 02:01:25;;;;;;;31.53;21.70;;;;;;;6.78;100.00;100903.34;4995077;28;20193;-73
2022/02/04 02:03:51;;;;;;;29.83;20.50;;;;;;;6.68;100.00;100888.56;4997966;28;20468;-73
2022/02/04 02:06:38;;;;;;;25.63;18.60;;;;;;;6.62;100.00;100902.56;4995009;28;20189;-77
2022/02/04 02:09:03;;;;;;;29.50;20.07;;;;;;;6.61;100.00;100874.25;4993644;28;20188;-77
2022/02/04 02:11:29;;;;;;;28.77;19.63;;;;;;;6.51;100.00;100850.50;4997088;28;20443;-76
2022/02/04 02:13:54;;;;;;;30.70;19.50;;;;;;;6.33;100.00;100818.72;4996417;28;20212;-77
2022/02/04 02:33:15;;;;;;;27.47;19.23;;;;;;;6.52;100.00;100842.31;4998352;28;20478;-75
2022/02/04 02:39:11;;;;;;;25.17;19.00;;;;;;;6.94;100.00;100858.94;4999716;28;20812;-74
2022/02/04 02:46:40;;;;;;;30.87;19.90;;;;;;;6.83;100.00;100854.84;4997123;28;20427;-74
2022/02/04 02:49:26;;;;;;;27.13;19.40;;;;;;;6.89;100.00;100843.50;4995418;28;20820;-74
2022/02/04 02:59:43;;;;;;;22.17;16.23;;;;;;;6.56;100.00;100800.97;5001931;28;20455;-75
2022/02/04 03:02:09;;;;;;;37.37;20.30;;;;;;;6.69;100.00;100789.78;4997029;28;20425;-74
2022/02/04 03:04:34;;;;;;;27.10;18.40;;;;;;;6.48;100.00;100755.72;4999643;22;20524;-73
2022/02/04 03:06:59;;;;;;;23.03;16.77;;;;;;;6.28;100.00;100735.84;4973766;28;20658;-74
2022/02/04 03:09:25;;;;;;;26.20;19.00;;;;;;;6.86;100.00;100800.34;4973376;28;20556;-74
2022/02/04 03:11:50;;;;;;;28.87;18.73;;;;;;;5.31;100.00;100600.22;4975382;28;20260;-73
2022/02/04 03:14:15;;;;;;;24.77;17.70;;;;;;;6.58;100.00;100779.50;4974469;28;20296;-73
2022/02/04 03:16:43;;;;;;;27.60;17.30;;;;;;;5.04;100.00;100516.38;4971775;28;20599;-74
2022/02/04 03:19:09;;;;;;;22.93;16.73;;;;;;;6.34;100.00;100719.16;4963016;28;20193;-72
2022/02/04 03:21:44;;;;;;;25.90;17.97;;;;;;;7.02;100.00;100822.41;4974310;28;20440;-73
2022/02/04 03:24:11;;;;;;;26.63;17.90;;;;;;;6.83;100.00;100796.19;4973720;28;20293;-73
2022/02/04 03:26:50;;;;;;;25.40;18.13;;;;;;;6.59;100.00;100759.81;4972718;28;20476;-72
2022/02/04 03:29:22;;;;;;;28.20;19.60;;;;;;;6.95;100.00;100799.28;4973924;28;20853;-73
2022/02/04 03:31:52;;;;;;;24.83;18.70;;;;;;;6.63;100.00;100747.00;4978343;28;20465;-73
2022/02/04 03:34:18;;;;;;;25.97;18.17;;;;;;;6.16;100.00;100667.97;4972872;28;20472;-72
2022/02/04 03:36:43;;;;;;;24.33;17.57;;;;;;;6.55;100.00;100740.69;4962969;28;21051;-73
2022/02/04 03:39:09;;;;;;;27.40;17.70;;;;;;;6.40;100.00;100709.66;4973039;28;20437;-73
2022/02/04 03:41:34;;;;;;;22.87;16.70;;;;;;;7.01;100.00;100790.59;4974500;28;20658;-73
2022/02/04 03:44:00;;;;;;;27.00;18.50;;;;;;;6.73;100.00;100748.41;4977199;28;20348;-73
2022/02/04 03:46:25;;;;;;;24.00;16.47;;;;;;;7.07;100.00;100807.72;4975889;28;20571;-73
2022/02/04 03:48:50;;;;;;;24.30;17.70;;;;;;;6.98;100.00;100810.44;4976980;28;20600;-73
2022/02/04 03:51:16;;;;;;;21.30;16.40;;;;;;;6.63;100.00;100726.50;4980652;28;20186;-73
2022/02/04 03:53:41;;;;;;;22.30;16.57;;;;;;;7.04;100.00;100786.75;4975261;28;20194;-73
2022/02/04 03:56:07;;;;;;;22.40;15.80;;;;;;;6.46;100.00;100696.44;4977740;28;20568;-73
2022/02/04 03:58:36;;;;;;;26.00;15.93;;;;;;;6.59;100.00;100706.53;4977917;28;20277;-73
2022/02/04 04:01:02;;;;;;;24.23;16.63;;;;;;;5.82;100.00;100606.03;4971222;28;20179;-73
2022/02/04 04:03:28;;;;;;;23.40;15.63;;;;;;;6.31;100.00;100652.94;4977044;28;20432;-73
2022/02/04 04:05:53;;;;;;;26.00;17.67;;;;;;;7.02;100.00;100779.72;4977470;28;20456;-71
2022/02/04 04:08:19;;;;;;;21.20;15.63;;;;;;;7.06;100.00;100774.91;4976615;28;20195;-73
2022/02/04 04:10:45;;;;;;;24.43;17.07;;;;;;;7.07;100.00;100765.06;4971891;28;20248;-73
2022/02/04 04:13:13;;;;;;;23.40;16.30;;;;;;;7.26;100.00;100783.22;4966988;28;20533;-73
2022/02/04 04:15:38;;;;;;;23.87;16.50;;;;;;;7.00;100.00;100736.44;4975859;28;20826;-73
2022/02/04 04:18:04;;;;;;;26.90;18.37;;;;;;;6.84;100.00;100728.53;4973777;28;20452;-73
2022/02/04 04:20:31;;;;;;;24.93;17.63;;;;;;;7.20;100.00;100774.13;4973936;28;20243;-73
2022/02/04 04:22:58;;;;;;;25.57;18.50;;;;;;;6.76;100.00;100716.06;4972928;28;20444;-72
2022/02/04 04:25:24;;;;;;;28.07;18.03;;;;;;;6.77;100.00;100706.28;4973921;28;20460;-73
2022/02/04 04:27:52;;;;;;;30.63;18.23;;;;;;;7.10;100.00;100762.84;4975928;28;20503;-73
2022/02/04 04:30:19;;;;;;;25.83;18.50;;;;;;;6.41;100.00;100652.69;4975563;28;20999;-73
2022/02/04 04:32:46;;;;;;;27.10;17.80;;;;;;;7.00;100.00;100736.44;4975354;28;20449;-73
2022/02/04 04:35:15;;;;;;;27.70;18.40;;;;;;;7.14;100.00;100761.47;4962088;28;20484;-73
2022/02/04 04:37:55;;;;;;;23.00;17.77;;;;;;;7.18;100.00;100769.97;4978414;28;20544;-73
2022/02/04 04:40:37;;;;;;;25.13;18.43;;;;;;;6.97;100.00;100723.44;4976714;28;20969;-73
2022/02/04 05:31:18;;;;;;;21.60;17.10;;;;;;;6.96;100.00;100644.44;4975208;28;20822;-73
2022/02/04 05:33:44;;;;;;;25.70;15.90;;;;;;;6.59;100.00;100591.94;4973476;28;20273;-73
2022/02/04 05:36:10;;;;;;;20.13;15.50;;;;;;;6.81;100.00;100632.91;4976943;28;20222;-73
2022/02/04 05:38:38;;;;;;;21.07;14.93;;;;;;;7.43;100.00;100715.41;4972327;28;20280;-72
2022/02/04 05:41:05;;;;;;;20.40;15.63;;;;;;;7.51;100.00;100708.31;4975162;28;20507;-72
2022/02/04 05:43:33;;;;;;;22.27;14.63;;;;;;;7.04;100.00;100651.56;4972928;28;21429;-73
2022/02/04 05:46:03;;;;;;;19.40;14.00;;;;;;;7.02;100.00;100638.38;4975239;28;20437;-73
2022/02/04 05:48:31;;;;;;;19.13;14.20;;;;;;;5.97;100.00;100482.88;4973791;28;20943;-73
2022/02/04 05:53:29;;;;;;;21.63;14.80;;;;;;;6.75;100.00;100567.00;4977025;28;20527;-72
2022/02/04 05:56:10;;;;;;;21.93;14.97;;;;;;;6.75;100.00;100565.16;4977374;28;20232;-71
2022/02/04 05:58:48;;;;;;;22.43;14.00;;;;;;;7.34;100.00;100675.63;4978203;28;20433;-73
2022/02/04 06:06:56;;;;;;;22.53;15.60;;;;;;;7.23;100.00;100632.38;4976446;28;20437;-72
2022/02/04 06:12:45;;;;;;;19.87;14.10;;;;;;;7.19;100.00;100638.25;4976079;28;20705;-71
2022/02/04 06:15:10;;;;;;;19.90;13.40;;;;;;;7.13;100.00;100610.47;4972369;28;20496;-72
2022/02/04 06:23:15;;;;;;;17.03;13.63;;;;;;;7.34;100.00;100640.94;4975613;28;22067;-72
2022/02/04 06:25:43;;;;;;;23.07;13.47;;;;;;;7.48;100.00;100651.63;4967863;28;20457;-72
2022/02/04 06:28:09;;;;;;;21.90;13.23;;;;;;;6.94;100.00;100570.97;4972423;28;20182;-73
2022/02/04 06:30:34;;;;;;;23.33;14.47;;;;;;;7.43;100.00;100654.03;4967007;28;20972;-74
2022/02/04 06:33:00;;;;;;;17.97;13.33;;;;;;;6.89;100.00;100560.88;4976906;28;20523;-73
2022/02/04 06:35:28;;;;;;;21.10;14.60;;;;;;;7.29;100.00;100612.16;4963407;28;21760;-74
2022/02/04 06:37:54;;;;;;;18.37;13.80;;;;;;;6.68;100.00;100540.25;4958845;28;20257;-74
2022/02/04 06:40:19;;;;;;;21.33;14.47;;;;;;;7.16;100.00;100583.41;4981687;28;20934;-74
2022/02/04 06:42:45;;;;;;;19.77;14.40;;;;;;;6.79;100.00;100537.09;4981259;28;20186;-74
2022/02/04 06:45:10;;;;;;;18.27;13.10;;;;;;;7.45;100.00;100633.28;4977737;28;20759;-73
2022/02/04 06:47:36;;;;;;;16.47;13.50;;;;;;;7.44;100.00;100634.31;4975977;28;20275;-73
2022/02/04 06:50:02;;;;;;;17.57;13.23;;;;;;;7.14;100.00;100592.59;4975890;28;20306;-78
2022/02/04 06:52:27;;;;;;;17.30;13.00;;;;;;;7.41;100.00;100637.34;4975707;28;20182;-74
2022/02/04 06:54:53;;;;;;;16.33;12.37;;;;;;;7.10;100.00;100584.16;4974491;28;21183;-73
2022/02/04 06:57:18;;;;;;;17.03;12.77;;;;;;;7.51;100.00;100625.56;4974580;28;20264;-74
2022/02/04 06:59:46;;;;;;;15.63;11.97;;;;;;;7.51;100.00;100654.94;4977215;28;20605;-74
2022/02/04 07:02:11;;;;;;;18.47;12.00;;;;;;;7.16;100.00;100585.25;4975284;28;20190;-74
2022/02/04 07:04:37;;;;;;;16.60;11.90;;;;;;;7.55;100.00;100629.53;4974100;28;20872;-74
2022/02/04 07:07:03;;;;;;;17.80;11.27;;;;;;;6.70;100.00;100486.72;4975144;28;20721;-74
2022/02/04 07:09:53;;;;;;;17.60;11.67;;;;;;;6.88;100.00;100521.84;4971265;28;20186;-74
2022/02/04 07:12:33;;;;;;;17.57;10.67;;;;;;;7.53;100.00;100621.72;4968703;28;20599;-72
2022/02/04 07:20:29;;;;;;;16.47;10.57;;;;;;;7.53;100.00;100621.72;4970787;28;20178;-73
2022/02/04 07:22:55;;;;;;;15.90;9.73;;;;;;;7.40;100.00;100590.31;4976105;28;20463;-73
2022/02/04 07:25:20;;;;;;;16.07;11.17;;;;;;;7.54;100.00;100595.84;4973707;28;20210;-73
2022/02/04 07:27:45;;;;;;;17.20;10.83;;;;;;;7.53;100.00;100607.56;4957158;28;20747;-72
2022/02/04 07:30:12;;;;;;;13.97;9.90;;;;;;;7.04;100.00;100504.06;4977501;28;20209;-73
2022/02/04 07:32:55;;;;;;;14.33;9.37;;;;;;;7.53;100.00;100611.03;4980839;28;20253;-74
2022/02/04 07:38:35;;;;;;;19.80;10.40;;;;;;;5.49;100.00;100253.34;4980578;28;20468;-73
2022/02/04 07:41:04;;;;;;;12.23;8.97;;;;;;;7.14;100.00;100516.06;4978953;28;20532;-72
2022/02/04 07:43:29;;;;;;;15.13;10.77;;;;;;;7.43;100.00;100557.97;4973368;28;20942;-72
2022/02/04 07:45:57;;;;;;;16.03;10.90;;;;;;;7.58;100.00;100600.66;4972775;28;20429;-71
2022/02/04 07:48:23;;;;;;;17.60;10.43;;;;;;;7.06;100.00;100516.19;4970189;28;20213;-72
2022/02/04 07:50:50;;;;;;;15.70;11.83;;;;;;;7.62;100.00;100579.75;4970459;28;20485;-72
2022/02/04 07:53:17;;;;;;;18.47;10.70;;;;;;;7.62;100.00;100577.06;4961506;28;20444;-70
2022/02/04 07:55:43;;;;;;;14.10;10.00;;;;;;;7.53;100.00;100555.00;4972662;28;20468;-72
2022/02/04 07:58:11;;;;;;;16.03;10.50;;;;;;;7.55;100.00;100568.13;4976113;28;20429;-71
2022/02/04 08:00:39;;;;;;;17.30;9.70;;;;;;;7.42;100.00;100553.59;4978372;28;20706;-71
2022/02/04 08:03:20;;;;;;;16.90;10.50;;;;;;;7.50;100.00;100555.38;4978537;28;20523;-72
2022/02/04 08:05:48;;;;;;;18.83;10.47;;;;;;;6.73;100.00;100443.72;4976139;28;20452;-72
2022/02/04 08:08:26;;;;;;;14.87;10.10;;;;;;;7.44;100.00;100548.94;4978513;28;20437;-73
2022/02/04 08:11:11;;;;;;;13.00;10.50;;;;;;;6.80;100.00;100431.34;4974674;28;20916;-71
2022/02/04 08:21:53;;;;;;;13.33;10.47;;;;;;;7.59;100.00;100556.09;4971349;28;20445;-72
2022/02/04 08:48:23;;;;;;;11.93;10.30;;;;;;;7.45;100.00;100505.19;4969027;28;20420;-72
2022/02/04 08:55:59;;;;;;;11.10;8.47;;;;;;;7.44;100.00;100505.41;4971800;28;20198;-72
2022/02/04 09:06:16;;;;;;;9.97;8.97;;;;;;;7.24;100.00;100447.28;4997797;22;20514;-72
2022/02/04 09:08:57;;;;;;;13.60;8.57;;;;;;;7.67;100.00;100518.63;4994524;28;20582;-73
2022/02/04 09:11:40;;;;;;;12.27;9.07;;;;;;;7.64;100.00;100509.16;4991702;28;20857;-74
2022/02/04 09:19:21;;;;;;;9.60;7.33;;;;;;;7.66;100.00;100491.06;4996624;28;20440;-72
2022/02/04 09:24:16;;;;;;;8.70;7.50;;;;;;;7.58;100.00;100469.00;4998196;28;20532;-73
2022/02/04 09:26:42;;;;;;;9.53;7.30;;;;;;;7.75;100.00;100490.97;4988056;28;20442;-72
2022/02/04 09:29:08;;;;;;;11.03;7.57;;;;;;;7.78;100.00;100486.09;4999385;28;20440;-74
2022/02/04 09:31:35;;;;;;;10.27;8.20;;;;;;;7.79;100.00;100484.25;4999241;28;20443;-72
2022/02/04 09:34:01;;;;;;;8.73;7.37;;;;;;;7.53;100.00;100434.06;4998754;28;20475;-73
2022/02/04 09:36:27;;;;;;;9.67;7.27;;;;;;;7.84;100.00;100479.16;4997576;28;20953;-73
2022/02/04 09:38:52;;;;;;;10.73;7.13;;;;;;;7.68;100.00;100448.19;4998170;28;20440;-74
2022/02/04 09:41:20;;;;;;;9.50;6.67;;;;;;;7.55;100.00;100426.69;4996058;28;20251;-73
2022/02/04 09:43:46;;;;;;;6.10;5.50;;;;;;;7.61;100.00;100426.78;4995878;28;20242;-74
2022/02/04 09:46:12;;;;;;;7.43;6.73;;;;;;;7.60;100.00;100418.94;4996992;28;20455;-72
2022/02/04 09:48:38;;;;;;;9.27;6.70;;;;;;;7.93;100.00;100454.00;4990985;28;20192;-73
2022/02/04 09:51:04;;;;;;;7.90;7.10;;;;;;;7.95;100.00;100475.97;4990899;28;20436;-72
2022/02/04 10:12:50;;;;;;;7.00;5.57;;;;;;;7.97;100.00;100422.38;5000935;28;20477;-71
2022/02/04 10:18:08;;;;;;;6.63;5.93;;;;;;;8.14;100.00;100431.78;4990776;28;20447;-73
2022/02/04 10:20:35;;;;;;;7.53;5.97;;;;;;;8.11;100.00;100426.81;4989052;28;20193;-73
2022/02/04 10:23:02;;;;;;;7.97;5.73;;;;;;;8.05;100.00;100399.03;4995190;28;20441;-72
2022/02/04 10:25:36;;;;;;;7.40;5.73;;;;;;;8.03;100.00;100403.75;4999427;28;20514;-74
2022/02/04 10:28:06;;;;;;;7.63;6.10;;;;;;;8.14;100.00;100424.59;4993998;28;20438;-73
2022/02/04 10:30:32;;;;;;;6.63;6.03;;;;;;;8.18;100.00;100414.34;4994900;28;20443;-73
2022/02/04 10:33:00;;;;;;;8.43;6.27;;;;;;;7.68;100.00;100315.53;4999078;28;20605;-73
2022/02/04 10:35:34;;;;;;;6.93;5.40;;;;;;;8.20;100.00;100400.78;5002594;28;20479;-71
2022/02/04 10:40:52;;;;;;;7.13;6.00;;;;;;;8.23;100.00;100403.09;5005878;28;20804;-72
2022/02/04 10:44:25;;;;;;;5.90;5.33;;;;;;;8.22;100.00;100394.25;5006721;28;20421;-74
2022/02/04 10:51:47;;;;;;;6.00;5.20;;;;;;;7.86;100.00;100328.41;5006515;28;20460;-73
2022/02/04 10:57:20;;;;;;;9.10;5.43;;;;;;;8.16;100.00;100362.97;5002056;28;20443;-74
2022/02/04 11:02:21;;;;;;;7.87;5.87;;;;;;;7.82;100.00;100283.63;5002143;28;20436;-71
2022/02/04 11:08:05;;;;;;;9.63;4.60;;;;;;;8.11;100.00;100325.31;4993197;28;20471;-72
2022/02/04 11:22:04;;;;;;;8.37;4.83;;;;;;;8.24;100.00;100303.19;4998630;28;20443;-74
2022/02/04 11:51:02;;;;;;;6.60;4.03;;;;;;;8.59;100.00;100256.75;4990292;28;20509;-71
2022/02/04 11:53:35;;;;;;;5.50;4.10;;;;;;;8.60;100.00;100254.91;4992659;28;20474;-71
2022/02/04 11:56:01;;;;;;;5.53;4.53;;;;;;;8.06;100.00;100178.97;4997782;28;20476;-71
2022/02/04 11:58:26;;;;;;;5.60;4.90;;;;;;;8.55;100.00;100246.66;4998014;28;20515;-71
2022/02/04 12:01:07;;;;;;;7.70;4.67;;;;;;;8.56;100.00;100253.63;5000516;28;20193;-71
2022/02/04 12:03:36;;;;;;;6.53;4.80;;;;;;;8.55;100.00;100235.94;4997800;28;20188;-70
2022/02/04 12:06:03;;;;;;;4.87;4.40;;;;;;;8.47;100.00;100217.41;4996744;28;20513;-71
2022/02/04 12:08:30;;;;;;;6.63;3.73;;;;;;;8.53;100.00;100240.66;5002111;28;20464;-72
2022/02/04 12:10:58;;;;;;;5.43;3.80;;;;;;;8.33;100.00;100205.81;4997198;28;20873;-71
2022/02/04 12:13:25;;;;;;;5.20;4.30;;;;;;;8.59;100.00;100232.69;5002797;28;20441;-71
2022/02/04 12:16:07;;;;;;;5.67;4.37;;;;;;;8.53;100.00;100205.91;4996953;28;20467;-71
2022/02/04 12:18:43;;;;;;;5.07;3.97;;;;;;;8.62;100.00;100209.22;5002620;28;20501;-71
2022/02/04 12:21:12;;;;;;;7.47;3.80;;;;;;;8.63;100.00;100206.38;4999288;28;20451;-69
2022/02/04 12:23:44;;;;;;;5.20;3.80;;;;;;;8.49;100.00;100160.06;4999977;28;20521;-71
2022/02/04 12:26:09;;;;;;;6.97;3.20;;;;;;;8.70;100.00;100190.34;5000366;28;20460;-72
2022/02/04 12:28:50;;;;;;;7.23;3.43;;;;;;;8.37;100.00;100125.06;5000156;28;20947;-71
2022/02/04 12:31:29;;;;;;;5.10;4.03;;;;;;;8.72;100.00;100185.63;4985859;28;21004;-74
2022/02/04 12:33:59;;;;;;;3.80;3.40;;;;;;;8.68;100.00;100171.84;4990328;28;20440;-73
2022/02/04 12:36:34;;;;;;;8.43;3.20;;;;;;;8.67;100.00;100178.19;4997121;28;20899;-72
2022/02/04 12:39:03;;;;;;;5.47;3.43;;;;;;;8.71;100.00;100166.09;4984892;28;20447;-73
2022/02/04 12:41:32;;;;;;;4.33;2.90;;;;;;;8.69;100.00;100175.34;4991590;28;20440;-72
2022/02/04 12:44:04;;;;;;;6.73;3.13;;;;;;;8.63;100.00;100144.88;4992211;28;20443;-72
2022/02/04 12:46:30;;;;;;;11.10;3.07;;;;;;;8.73;100.00;100153.31;4997158;28;20456;-73
2022/02/04 12:49:05;;;;;;;3.67;2.77;;;;;;;8.71;100.00;100159.91;4982431;28;20443;-69
2022/02/04 12:51:32;;;;;;;3.80;2.80;;;;;;;8.78;100.00;100142.84;4998716;28;20463;-71
2022/02/04 12:53:58;;;;;;;4.50;2.23;;;;;;;8.80;100.00;100146.16;4982067;28;20947;-68
2022/02/04 12:56:39;;;;;;;3.73;2.50;;;;;;;8.74;100.00;100130.91;4997558;28;20464;-70
2022/02/04 13:02:25;;;;;;;4.90;2.47;;;;;;;8.54;100.00;100092.66;5001227;28;20439;-70
2022/02/04 13:07:40;;;;;;;4.53;2.37;;;;;;;8.68;100.00;100112.19;5002396;28;20434;-71
2022/02/04 13:10:06;;;;;;;3.70;2.20;;;;;;;8.49;100.00;100082.56;5003149;28;20412;-70
2022/02/04 13:12:47;;;;;;;7.00;3.00;;;;;;;8.61;100.00;100104.16;5004363;28;20442;-70
2022/02/04 13:15:13;;;;;;;5.83;2.10;;;;;;;8.34;100.00;100063.19;4998891;28;20475;-70
2022/02/04 13:17:39;;;;;;;3.60;2.33;;;;;;;8.52;100.00;100092.03;5002510;28;20506;-69
2022/02/04 13:20:05;;;;;;;5.47;2.17;;;;;;;8.62;100.00;100099.63;5002473;28;20458;-70
2022/02/04 13:22:31;;;;;;;12.30;2.70;;;;;;;8.54;100.00;100101.47;4998426;28;20216;-71
2022/02/04 13:25:07;;;;;;;2.57;2.10;;;;;;;8.42;100.00;100091.56;5003365;28;20475;-70
2022/02/04 13:27:33;;;;;;;4.43;2.20;;;;;;;8.20;100.00;100067.66;5000030;28;20184;-71
2022/02/04 13:29:58;;;;;;;8.10;2.80;;;;;;;8.36;100.00;100095.84;4999590;28;20455;-69
2022/02/04 13:32:25;;;;;;;3.03;2.20;;;;;;;8.24;100.00;100106.31;4998139;28;20238;-69
2022/02/04 13:34:52;;;;;;;3.17;1.90;;;;;;;8.19;100.00;100102.59;4999163;28;20248;-71
2022/02/04 13:37:27;;;;;;;5.87;3.23;;;;;;;8.11;100.00;100099.09;5000848;28;20540;-70
2022/02/04 13:42:45;;;;;;;7.60;2.40;;;;;;;8.04;100.00;100100.94;4997508;28;20506;-70
2022/02/04 13:45:38;;;;;;;7.30;2.77;;;;;;;7.67;100.00;100038.97;4999030;28;20466;-70
2022/02/04 13:48:17;;;;;;;5.20;2.23;;;;;;;7.91;100.00;100085.66;4999678;28;20463;-70
2022/02/04 13:51:11;;;;;;;4.67;2.60;;;;;;;7.93;100.00;100114.84;4976400;28;20494;-72
2022/02/04 13:53:50;;;;;;;6.23;1.10;;;;;;;6.77;100.00;100143.81;4991378;28;20436;-70
2022/02/04 13:57:06;;;;;;;7.47;1.10;;;;;;;6.70;100.00;100135.75;4993181;28;20550;-71
2022/02/04 13:59:34;;;;;;;2.60;1.27;;;;;;;6.34;100.00;100112.66;4997083;28;20581;-70
2022/02/04 14:02:20;;;;;;;2.87;0.83;;;;;;;6.06;100.00;100123.19;4996797;28;21052;-70
2022/02/04 14:05:01;;;;;;;3.47;1.00;;;;;;;6.23;100.00;100173.56;4997141;28;20455;-70
2022/02/04 14:07:39;;;;;;;5.67;0.80;;;;;;;6.15;100.00;100187.00;5002517;28;20433;-69
2022/02/04 14:10:55;;;;;;;4.03;0.70;;;;;;;6.14;100.00;100172.03;5001446;28;20607;-70
2022/02/04 14:13:23;;;;;;;1.83;1.00;;;;;;;5.87;100.00;100208.91;4970194;28;20456;-70
2022/02/04 14:15:56;;;;;;;1.77;0.70;;;;;;;5.66;100.00;100189.16;4993348;28;20518;-70
2022/02/04 14:18:22;;;;;;;1.20;0.60;;;;;;;5.65;100.00;100227.44;5001631;28;20437;-70
2022/02/04 14:20:48;;;;;;;4.33;0.60;;;;;;;5.72;100.00;100149.53;5001101;28;20431;-70
2022/02/04 14:23:14;;;;;;;1.67;0.60;;;;;;;5.95;100.00;100222.16;4994776;28;20522;-70
2022/02/04 14:25:56;;;;;;;1.80;0.50;;;;;;;5.63;100.00;100220.63;4998031;28;20452;-70
2022/02/04 14:28:33;;;;;;;2.20;0.60;;;;;;;5.97;100.00;100225.47;4995159;28;20959;-70
2022/02/04 14:31:05;;;;;;;4.93;0.60;;;;;;;5.80;100.00;100223.97;4999986;28;20423;-70
2022/02/04 14:36:32;;;;;;;1.33;0.50;;;;;;;5.13;100.00;100206.97;5003211;28;21018;-70
2022/02/04 14:52:31;;;;;;;1.93;1.60;;;;;;;5.36;100.00;100209.59;4998179;28;20951;-70
2022/02/04 15:02:52;;;;;;;2.23;0.70;;;;;;;5.34;100.00;100267.44;4997518;28;20974;-70
2022/02/04 15:05:21;;;;;;;4.20;0.60;;;;;;;4.97;100.00;100286.81;5002946;28;20455;-69
2022/02/04 15:07:49;;;;;;;2.83;0.50;;;;;;;5.08;100.00;100275.78;5003305;28;20659;-70
2022/02/04 15:10:28;;;;;;;1.83;0.70;;;;;;;5.07;100.00;100270.66;5004252;22;20508;-78
2022/02/04 15:12:54;;;;;;;2.03;0.50;;;;;;;4.62;100.00;100259.78;4992189;28;20435;-79
2022/02/04 15:15:20;;;;;;;4.50;0.70;;;;;;;5.14;100.00;100298.16;4996149;28;20463;-79
2022/02/04 15:17:46;;;;;;;1.00;0.80;;;;;;;4.26;100.00;100162.06;4997183;28;20440;-77
2022/02/04 15:20:11;;;;;;;0.80;0.50;;;;;;;4.79;100.00;100239.25;4994581;28;20840;-78
2022/02/04 15:22:36;;;;;;;1.17;0.60;;;;;;;4.81;100.00;100285.09;4977915;28;20319;-78
2022/02/04 15:25:11;;;;;;;1.83;0.60;;;;;;;3.96;100.00;100166.31;4982779;28;20213;-79
2022/02/04 15:27:40;;;;;;;1.23;0.70;;;;;;;2.89;100.00;100048.31;4995750;28;20736;-80
2022/02/04 15:30:07;;;;;;;2.63;0.73;;;;;;;4.06;100.00;100214.72;4988828;28;20848;-79
2022/02/04 15:32:32;;;;;;;1.37;0.70;;;;;;;4.35;100.00;100201.84;4980096;28;20519;-79
2022/02/04 15:34:57;;;;;;;0.87;0.53;;;;;;;5.17;100.00;100343.00;4985022;28;20543;-77
2022/02/04 15:37:23;;;;;;;1.83;0.60;;;;;;;4.36;100.00;100214.09;4999010;28;20182;-79
2022/02/04 15:39:49;;;;;;;2.63;0.70;;;;;;;5.19;100.00;100323.22;4981718;28;20205;-77
2022/02/04 15:42:17;;;;;;;1.93;0.90;;;;;;;4.78;100.00;100313.84;4985928;28;20272;-77
2022/02/04 15:45:11;;;;;;;1.23;0.70;;;;;;;4.52;100.00;100291.06;4995108;28;20960;-77
2022/02/04 15:47:39;;;;;;;1.10;0.57;;;;;;;4.98;100.00;100333.66;4994473;28;20451;-77
2022/02/04 15:50:28;;;;;;;2.53;0.70;;;;;;;4.90;100.00;100342.50;4991876;28;20479;-77
2022/02/04 15:58:38;;;;;;;3.60;1.00;;;;;;;5.12;100.00;100359.50;4987539;28;20522;-77
2022/02/04 16:06:28;;;;;;;3.30;0.90;;;;;;;5.01;100.00;100375.03;4982665;28;20432;-81
2022/02/04 16:08:56;;;;;;;3.77;1.10;;;;;;;5.20;100.00;100382.53;4976518;28;20472;-78
2022/02/04 16:14:30;;;;;;;1.80;0.80;;;;;;;4.75;100.00;100357.53;4998957;28;20779;-77
2022/02/04 16:17:02;;;;;;;2.40;0.70;;;;;;;4.74;100.00;100362.03;4996045;28;20424;-79
2022/02/04 16:19:29;;;;;;;4.70;0.97;;;;;;;5.22;100.00;100388.53;4998841;28;20459;-77
2022/02/04 16:24:45;;;;;;;2.33;1.00;;;;;;;4.92;100.00;100420.25;4998921;28;20425;-78
2022/02/04 16:29:54;;;;;;;2.77;1.00;;;;;;;4.76;100.00;100407.00;4999534;28;20518;-77
2022/02/04 16:32:20;;;;;;;3.63;1.03;;;;;;;5.19;100.00;100440.22;4997951;28;20862;-78
2022/02/04 16:34:53;;;;;;;4.07;1.07;;;;;;;4.96;100.00;100434.00;4992774;28;20206;-77
2022/02/04 16:37:28;;;;;;;5.50;1.20;;;;;;;3.82;100.00;100308.50;4995428;28;20195;-79
2022/02/04 16:39:54;;;;;;;2.93;1.30;;;;;;;3.85;100.00;100336.53;5001671;28;20479;-78
2022/02/04 16:42:19;;;;;;;3.40;1.37;;;;;;;4.86;100.00;100451.97;5002505;28;20487;-78
2022/02/04 16:44:45;;;;;;;4.87;1.23;;;;;;;4.60;100.00;100458.38;5000050;28;21262;-78
2022/02/04 16:47:10;;;;;;;2.47;0.90;;;;;;;4.36;100.00;100464.53;4985305;28;20223;-78
2022/02/04 16:49:37;;;;;;;2.30;0.87;;;;;;;3.69;100.00;100317.94;5000686;28;20210;-78
2022/02/04 16:52:05;;;;;;;3.17;0.80;;;;;;;4.73;100.00;100469.28;4999649;28;20185;-78
2022/02/04 16:54:33;;;;;;;3.00;0.80;;;;;;;4.51;100.00;100469.97;4999508;28;20460;-77
2022/02/04 16:56:59;;;;;;;2.53;0.73;;;;;;;4.01;100.00;100383.44;4981689;28;20432;-78
2022/02/04 16:59:24;;;;;;;1.80;0.80;;;;;;;4.46;100.00;100483.78;4999685;28;20467;-79
2022/02/04 17:01:50;;;;;;;4.37;0.80;;;;;;;4.26;100.00;100467.34;4984914;28;20260;-79
2022/02/04 17:04:16;;;;;;;7.10;1.00;;;;;;;4.22;100.00;100476.66;4983706;28;20193;-78
2022/02/04 17:06:45;;;;;;;3.50;1.00;;;;;;;4.22;100.00;100452.78;4996986;28;20182;-77
2022/02/04 17:11:43;;;;;;;2.20;0.80;;;;;;;4.64;100.00;100488.06;4992500;28;20478;-78
2022/02/04 17:14:09;;;;;;;8.70;1.57;;;;;;;4.36;100.00;100466.34;4980113;28;20455;-78
2022/02/04 17:16:34;;;;;;;6.17;1.30;;;;;;;4.80;100.00;100498.66;4977332;28;20486;-77
2022/02/04 17:19:00;;;;;;;3.17;1.03;;;;;;;3.85;100.00;100392.25;4992529;28;20456;-77
2022/02/04 17:21:29;;;;;;;12.50;1.83;;;;;;;4.84;100.00;100512.44;4995570;28;20189;-77